Time;durP1;ratioP1;P1;durP2;ratioP2;P2;SDS_P1;SDS_P2;PMS_P1;PMS_P2;Temp;Humidity;BMP_temperature;BMP_pressure;BME280_temperature;BME280_humidity;BME280_pressure;Samples;Min_cycle;Max_cycle;Signal;HPM_P1;HPM_P2
2022/09/20 00:00:46;;;;;;;21.40;10.98;;;11.70;99.90;;;;;;5075375;28;20116;-52
2022/09/20 00:03:13;;;;;;;18.38;10.18;;;11.70;99.90;;;;;;5070264;28;20028;-50
2022/09/20 00:05:42;;;;;;;42.22;17.85;;;11.80;99.90;;;;;;5073665;28;20063;-53
2022/09/20 00:08:12;;;;;;;12.52;7.53;;;11.60;99.90;;;;;;5052460;28;20037;-49
2022/09/20 00:10:38;;;;;;;10.60;7.00;;;11.20;99.90;;;;;;5052718;28;20175;-49
2022/09/20 00:13:06;;;;;;;9.93;7.00;;;10.90;99.90;;;;;;5052358;28;20047;-51
2022/09/20 00:15:32;;;;;;;10.82;6.50;;;10.80;99.90;;;;;;5052654;28;20412;-51
2022/09/20 00:17:58;;;;;;;8.93;6.32;;;10.80;99.90;;;;;;5035620;28;20479;-52
2022/09/20 00:20:24;;;;;;;15.02;8.00;;;10.80;99.90;;;;;;5053058;28;20041;-49
2022/09/20 00:22:50;;;;;;;13.80;8.25;;;10.90;99.90;;;;;;5019955;28;20044;-52
2022/09/20 00:25:17;;;;;;;11.45;7.78;;;11.10;99.90;;;;;;5052869;28;20036;-51
2022/09/20 00:27:44;;;;;;;13.57;7.18;;;11.20;99.90;;;;;;5053080;28;20060;-51
2022/09/20 00:30:12;;;;;;;8.63;5.85;;;11.30;99.90;;;;;;5052969;28;20028;-53
2022/09/20 00:32:39;;;;;;;9.32;5.70;;;11.40;99.90;;;;;;5036384;28;20068;-51
2022/09/20 00:35:09;;;;;;;9.27;4.88;;;11.40;99.90;;;;;;5051820;28;20499;-53
2022/09/20 00:37:42;;;;;;;9.30;6.00;;;11.30;99.90;;;;;;5052742;28;20028;-53
2022/09/20 00:40:13;;;;;;;15.23;9.02;;;11.40;99.90;;;;;;5054587;28;20400;-51
2022/09/20 00:42:40;;;;;;;10.60;6.40;;;11.20;99.90;;;;;;5052630;28;20107;-49
2022/09/20 00:45:10;;;;;;;10.00;6.22;;;11.20;99.90;;;;;;5052815;28;20032;-52
2022/09/20 00:47:55;;;;;;;10.40;6.10;;;11.20;99.90;;;;;;5035378;28;20037;-52
2022/09/20 00:50:23;;;;;;;10.45;5.10;;;11.00;99.90;;;;;;5052415;28;20064;-51
2022/09/20 00:53:00;;;;;;;6.75;4.88;;;11.00;99.90;;;;;;5052735;28;20040;-53
2022/09/20 00:55:27;;;;;;;6.93;4.60;;;11.10;99.90;;;;;;5052239;28;20124;-52
2022/09/20 00:57:53;;;;;;;9.57;4.75;;;11.10;99.90;;;;;;5052348;28;20396;-51
2022/09/20 01:00:20;;;;;;;10.38;5.65;;;10.70;99.90;;;;;;5052224;28;20041;-51
2022/09/20 01:02:50;;;;;;;7.57;4.55;;;10.60;99.90;;;;;;5035560;28;20037;-50
2022/09/20 01:05:17;;;;;;;6.53;4.32;;;10.30;99.90;;;;;;5052352;28;20515;-49
2022/09/20 01:07:46;;;;;;;10.38;5.45;;;10.10;99.90;;;;;;5052397;28;20077;-50
2022/09/20 01:10:11;;;;;;;12.07;6.13;;;10.10;99.90;;;;;;5051889;28;20029;-52
2022/09/20 01:12:39;;;;;;;8.55;5.47;;;10.40;99.90;;;;;;5053719;28;20049;-49
2022/09/20 01:15:08;;;;;;;8.38;5.68;;;10.50;99.90;;;;;;5074227;28;20082;-53
2022/09/20 01:17:37;;;;;;;9.05;5.15;;;10.60;99.90;;;;;;5055739;28;20033;-50
2022/09/20 01:20:05;;;;;;;9.50;6.03;;;10.80;99.90;;;;;;5074028;28;20037;-52
2022/09/20 01:23:10;;;;;;;8.32;4.43;;;10.90;99.90;;;;;;5073936;28;20128;-52
2022/09/20 01:25:55;;;;;;;6.68;4.50;;;11.00;99.90;;;;;;5074136;28;20020;-52
2022/09/20 01:28:22;;;;;;;6.65;4.63;;;10.70;99.90;;;;;;5073937;28;20020;-49
2022/09/20 01:30:53;;;;;;;5.28;4.13;;;10.40;99.90;;;;;;5073959;28;20028;-51
2022/09/20 01:33:33;;;;;;;6.18;4.55;;;10.20;99.90;;;;;;5073923;28;20360;-51
2022/09/20 01:36:03;;;;;;;7.13;4.43;;;9.80;99.90;;;;;;5073820;28;20139;-50
2022/09/20 01:38:43;;;;;;;7.38;5.32;;;10.00;99.90;;;;;;5055082;28;20040;-50
2022/09/20 01:41:13;;;;;;;8.10;4.32;;;10.10;99.90;;;;;;5073869;28;20036;-52
2022/09/20 01:44:04;;;;;;;9.88;4.78;;;10.30;99.90;;;;;;5073883;28;20372;-52
2022/09/20 01:46:32;;;;;;;6.20;4.38;;;10.40;99.90;;;;;;5055076;28;20032;-52
2022/09/20 01:49:40;;;;;;;7.82;3.70;;;10.40;99.90;;;;;;5054497;28;20260;-51
2022/09/20 01:52:30;;;;;;;8.43;4.25;;;10.60;99.90;;;;;;5011749;28;20036;-53
2022/09/20 01:55:10;;;;;;;7.03;4.15;;;10.70;99.90;;;;;;4995313;28;20474;-51
2022/09/20 01:57:48;;;;;;;5.63;4.05;;;10.70;99.90;;;;;;5011558;28;20034;-50
2022/09/20 02:00:19;;;;;;;5.53;4.43;;;10.60;99.90;;;;;;4995185;28;20465;-52
2022/09/20 02:03:14;;;;;;;5.60;4.20;;;10.40;99.90;;;;;;5011762;28;20069;-50
2022/09/20 02:05:58;;;;;;;6.50;5.05;;;10.20;99.90;;;;;;5011557;28;20038;-51
2022/09/20 02:08:45;;;;;;;11.02;5.57;;;10.00;99.90;;;;;;5011579;28;20069;-52
2022/09/20 02:11:28;;;;;;;8.70;6.10;;;10.20;99.90;;;;;;5011594;28;20112;-50
2022/09/20 02:14:17;;;;;;;10.75;6.97;;;10.30;99.90;;;;;;5011593;28;20048;-52
2022/09/20 02:43:50;;;;;;;6.10;4.00;;;9.80;99.90;;;;;;5063861;28;20082;-52
2022/09/20 02:46:51;;;;;;;6.82;4.25;;;9.90;99.90;;;;;;5057260;28;20060;-53
2022/09/20 02:49:57;;;;;;;5.97;3.87;;;10.20;99.90;;;;;;5054156;28;20087;-50
2022/09/20 02:52:48;;;;;;;6.28;3.40;;;10.40;99.90;;;;;;5061510;28;20295;-51
2022/09/20 02:55:27;;;;;;;4.13;2.83;;;10.50;99.90;;;;;;5034426;28;20404;-52
2022/09/20 02:58:44;;;;;;;3.17;2.70;;;10.50;99.90;;;;;;5052665;28;20040;-52
2022/09/20 03:01:25;;;;;;;4.57;2.70;;;10.50;99.90;;;;;;5012166;28;20054;-52
2022/09/20 03:04:32;;;;;;;4.00;2.58;;;10.50;99.90;;;;;;5014911;28;20140;-52
2022/09/20 03:07:20;;;;;;;3.83;2.60;;;10.50;99.90;;;;;;4918132;29;20052;-53
2022/09/20 03:10:03;;;;;;;5.20;2.83;;;10.20;99.90;;;;;;4918414;29;20036;-50
2022/09/20 03:12:51;;;;;;;5.57;2.85;;;10.10;99.90;;;;;;4917799;29;20076;-50
2022/09/20 03:15:33;;;;;;;6.28;3.25;;;10.30;99.90;;;;;;4918197;29;20043;-52
2022/09/20 03:18:09;;;;;;;3.83;2.88;;;10.30;99.90;;;;;;4917988;29;20546;-51
2022/09/20 03:20:46;;;;;;;3.92;2.35;;;10.50;99.90;;;;;;4917931;29;20066;-50
2022/09/20 03:23:14;;;;;;;4.50;2.80;;;10.60;99.90;;;;;;4918064;29;20048;-52
2022/09/20 03:26:02;;;;;;;3.13;2.33;;;10.60;99.90;;;;;;4917971;29;20028;-50
2022/09/20 03:28:45;;;;;;;3.17;2.35;;;10.30;99.90;;;;;;4918184;29;20044;-52
2022/09/20 03:31:38;;;;;;;3.83;2.30;;;10.40;99.90;;;;;;4917859;29;20044;-52
2022/09/20 03:34:31;;;;;;;10.75;3.10;;;10.60;99.90;;;;;;4917797;29;20036;-50
2022/09/20 03:37:09;;;;;;;3.83;2.35;;;10.80;99.90;;;;;;4926710;28;20110;-52
2022/09/20 03:40:16;;;;;;;5.63;2.83;;;10.60;99.90;;;;;;4975118;28;20549;-51
2022/09/20 03:42:47;;;;;;;5.50;3.05;;;10.70;99.90;;;;;;4940250;28;20404;-49
2022/09/20 03:45:50;;;;;;;5.47;2.47;;;10.80;99.90;;;;;;4936564;29;20035;-52
2022/09/20 03:48:31;;;;;;;4.75;3.15;;;10.90;99.90;;;;;;4952622;29;20036;-49
2022/09/20 03:51:07;;;;;;;4.18;2.88;;;10.90;99.90;;;;;;4920365;29;20040;-52
2022/09/20 03:53:50;;;;;;;5.00;3.30;;;11.00;99.90;;;;;;4936571;29;20520;-52
2022/09/20 03:56:43;;;;;;;6.95;3.47;;;10.90;99.90;;;;;;4936346;29;20028;-51
2022/09/20 03:59:46;;;;;;;3.92;3.35;;;10.80;99.90;;;;;;4919954;29;20055;-51
2022/09/20 04:02:23;;;;;;;7.20;3.72;;;10.90;99.90;;;;;;4918174;29;20075;-52
2022/09/20 04:04:56;;;;;;;4.15;3.35;;;10.80;99.90;;;;;;4934443;29;20123;-49
2022/09/20 04:07:54;;;;;;;4.28;3.40;;;10.80;99.90;;;;;;4934996;29;20035;-52
2022/09/20 04:10:27;;;;;;;5.18;3.42;;;10.80;99.90;;;;;;4935233;29;20044;-51
2022/09/20 04:13:07;;;;;;;3.58;2.55;;;11.00;99.90;;;;;;4933236;29;20054;-52
2022/09/20 04:15:43;;;;;;;4.70;3.00;;;11.00;99.90;;;;;;4948431;28;20517;-51
2022/09/20 04:18:36;;;;;;;6.38;4.05;;;11.00;99.90;;;;;;5027017;28;20416;-49
2022/09/20 04:21:34;;;;;;;9.90;8.30;;;11.10;99.90;;;;;;5075125;28;20064;-51
2022/09/20 04:24:09;;;;;;;12.00;9.30;;;10.80;99.90;;;;;;5033173;28;20050;-50
2022/09/20 04:26:42;;;;;;;16.13;12.60;;;10.90;99.90;;;;;;5032164;28;20076;-51
2022/09/20 04:29:13;;;;;;;21.15;15.07;;;10.90;99.90;;;;;;5032807;28;20474;-50
2022/09/20 04:31:42;;;;;;;18.02;13.60;;;11.00;99.90;;;;;;5031770;28;20060;-50
2022/09/20 04:34:18;;;;;;;15.52;10.05;;;11.00;99.90;;;;;;5032849;28;20068;-49
2022/09/20 04:37:16;;;;;;;17.45;12.38;;;10.70;99.90;;;;;;5033088;28;20033;-49
2022/09/20 04:40:19;;;;;;;46.97;28.92;;;10.90;99.90;;;;;;5032658;28;20090;-52
2022/09/20 04:42:59;;;;;;;41.60;26.58;;;11.00;99.90;;;;;;5029741;28;20030;-50
2022/09/20 04:45:50;;;;;;;26.52;17.83;;;11.10;99.90;;;;;;5028855;28;20542;-53
2022/09/20 04:48:37;;;;;;;12.63;9.10;;;10.90;99.90;;;;;;4971069;28;20039;-52
2022/09/20 04:51:18;;;;;;;14.27;11.65;;;10.50;99.90;;;;;;4976347;28;20078;-52
2022/09/20 04:54:02;;;;;;;14.90;9.00;;;10.40;99.90;;;;;;4974496;28;20569;-50
2022/09/20 04:56:56;;;;;;;22.02;9.85;;;10.40;99.90;;;;;;4972987;28;20049;-50
2022/09/20 04:59:51;;;;;;;48.63;22.90;;;10.30;99.90;;;;;;4986285;28;20058;-50
2022/09/20 05:02:41;;;;;;;25.40;11.90;;;10.30;99.90;;;;;;5010849;28;20042;-50
2022/09/20 05:05:39;;;;;;;11.20;6.53;;;10.30;99.90;;;;;;5006999;28;20780;-51
2022/09/20 05:08:28;;;;;;;7.28;3.72;;;10.30;99.90;;;;;;5009351;28;20092;-53
2022/09/20 05:11:52;;;;;;;5.57;3.03;;;10.50;99.90;;;;;;5012540;28;20034;-50
2022/09/20 05:14:48;;;;;;;4.63;3.15;;;10.50;99.90;;;;;;4991516;28;20081;-50
2022/09/20 05:17:30;;;;;;;5.68;2.95;;;10.60;99.90;;;;;;4992747;28;20026;-53
2022/09/20 05:20:28;;;;;;;5.90;2.85;;;10.80;99.90;;;;;;4999525;28;20054;-52
2022/09/20 05:23:24;;;;;;;4.65;2.90;;;11.00;99.90;;;;;;4975552;28;20073;-50
2022/09/20 05:26:23;;;;;;;4.97;2.83;;;11.10;99.90;;;;;;5021143;28;20036;-54
2022/09/20 05:29:12;;;;;;;4.70;3.05;;;11.10;99.90;;;;;;5034360;28;20107;-54
2022/09/20 05:31:43;;;;;;;5.47;2.67;;;11.20;99.90;;;;;;5056250;28;20044;-49
2022/09/20 05:34:30;;;;;;;4.30;2.80;;;11.20;99.90;;;;;;5040179;28;20366;-52
2022/09/20 05:37:04;;;;;;;5.35;2.45;;;11.20;99.90;;;;;;5031291;28;20052;-53
2022/09/20 05:39:47;;;;;;;4.95;2.90;;;11.20;99.90;;;;;;5031485;28;20413;-52
2022/09/20 05:42:27;;;;;;;4.05;3.00;;;11.20;99.90;;;;;;4980572;28;20039;-49
2022/09/20 05:44:56;;;;;;;5.80;3.15;;;11.20;99.90;;;;;;5047541;28;20045;-51
2022/09/20 05:47:44;;;;;;;6.13;2.92;;;11.20;99.90;;;;;;5066333;28;20131;-52
2022/09/20 05:50:35;;;;;;;3.20;2.67;;;11.30;99.90;;;;;;5073452;28;20032;-53
2022/09/20 05:53:09;;;;;;;7.78;3.08;;;11.30;99.90;;;;;;5073698;28;20086;-51
2022/09/20 05:55:59;;;;;;;4.43;3.00;;;11.30;99.90;;;;;;5073687;28;20085;-54
2022/09/20 05:58:43;;;;;;;8.32;3.03;;;11.40;99.90;;;;;;5073538;28;20167;-50
2022/09/20 06:01:20;;;;;;;4.10;2.55;;;11.40;99.90;;;;;;5068211;28;20438;-52
2022/09/20 06:04:22;;;;;;;5.22;2.58;;;11.50;99.90;;;;;;5068059;28;20025;-52
2022/09/20 06:07:00;;;;;;;6.30;3.95;;;11.70;99.90;;;;;;5070090;28;20522;-52
2022/09/20 06:09:54;;;;;;;3.80;2.80;;;11.80;99.90;;;;;;5037296;28;20024;-54
2022/09/20 06:12:22;;;;;;;4.97;3.10;;;11.90;99.90;;;;;;5071351;28;20102;-51
2022/09/20 06:14:49;;;;;;;5.43;3.70;;;12.10;99.90;;;;;;5069712;28;20028;-49
2022/09/20 06:17:23;;;;;;;28.20;14.98;;;12.10;99.90;;;;;;5072587;28;20463;-54
2022/09/20 06:20:31;;;;;;;21.77;14.55;;;12.30;99.90;;;;;;5069938;28;20086;-51
2022/09/20 06:23:00;;;;;;;5.63;4.20;;;12.20;99.90;;;;;;5086100;28;20116;-52
2022/09/20 06:25:48;;;;;;;4.43;2.40;;;12.30;99.90;;;;;;5072422;28;20024;-51
2022/09/20 06:28:20;;;;;;;3.92;2.13;;;12.60;99.90;;;;;;5070685;28;20082;-54
2022/09/20 06:30:56;;;;;;;3.58;2.03;;;12.70;99.90;;;;;;5037080;28;20384;-52
2022/09/20 06:33:27;;;;;;;3.95;2.20;;;12.80;99.90;;;;;;5072221;28;20029;-51
2022/09/20 06:41:48;;;;;;;3.78;2.05;;;13.40;99.90;;;;;;5077464;28;20442;-53
2022/09/20 06:44:14;;;;;;;4.63;2.22;;;13.60;99.90;;;;;;5075064;28;20123;-54
2022/09/20 06:46:40;;;;;;;5.07;2.10;;;13.70;99.90;;;;;;5076912;28;20104;-50
2022/09/20 06:49:09;;;;;;;4.30;2.10;;;13.80;99.90;;;;;;5076872;28;20035;-52
2022/09/20 06:51:37;;;;;;;3.88;2.22;;;13.70;99.90;;;;;;5058287;28;20036;-54
2022/09/20 06:54:04;;;;;;;2.97;2.05;;;13.80;99.90;;;;;;5076522;28;20456;-54
2022/09/20 06:56:35;;;;;;;3.33;1.85;;;13.80;99.90;;;;;;5077348;28;20070;-52
2022/09/20 06:59:07;;;;;;;6.03;1.98;;;14.00;99.90;;;;;;5076878;28;20364;-52
2022/09/20 07:01:33;;;;;;;2.15;1.55;;;13.90;99.90;;;;;;5076525;28;20090;-55
2022/09/20 07:03:58;;;;;;;2.40;1.33;;;13.90;99.90;;;;;;5072685;28;20037;-51
2022/09/20 07:06:26;;;;;;;6.85;3.10;;;13.70;99.90;;;;;;5065382;28;20083;-52
2022/09/20 07:08:51;;;;;;;4.22;2.45;;;13.90;99.90;;;;;;5056947;28;20376;-54
2022/09/20 07:11:17;;;;;;;4.03;2.35;;;14.20;99.90;;;;;;5056636;28;20021;-52
2022/09/20 07:13:44;;;;;;;2.67;2.35;;;14.40;99.90;;;;;;5053800;28;20037;-49
2022/09/20 07:16:13;;;;;;;3.22;1.70;;;14.70;99.90;;;;;;5056360;28;20031;-51
2022/09/20 07:18:40;;;;;;;7.22;1.95;;;14.80;99.90;;;;;;5057222;28;20112;-53
2022/09/20 07:21:11;;;;;;;2.85;1.90;;;14.80;99.90;;;;;;5073004;28;20036;-51
2022/09/20 07:23:37;;;;;;;4.32;2.20;;;15.20;99.90;;;;;;5076031;28;20129;-50
2022/09/20 07:26:02;;;;;;;3.90;2.00;;;15.50;99.90;;;;;;5076210;28;20483;-53
2022/09/20 07:28:29;;;;;;;6.65;2.53;;;;;;;;;;5075890;28;20032;-51
2022/09/20 07:30:55;;;;;;;3.10;1.35;;;15.80;99.90;;;;;;5075289;28;20025;-50
2022/09/20 07:33:22;;;;;;;2.78;1.83;;;15.80;99.90;;;;;;5075351;28;20070;-49
2022/09/20 07:35:48;;;;;;;5.28;1.85;;;15.90;99.90;;;;;;5074803;28;20028;-51
2022/09/20 07:38:14;;;;;;;3.15;1.60;;;15.80;99.90;;;;;;5075222;28;20480;-52
2022/09/20 07:40:41;;;;;;;2.22;1.45;;;15.70;99.90;;;;;;5075781;28;20052;-52
2022/09/20 07:43:07;;;;;;;3.13;2.15;;;15.80;99.90;;;;;;5076013;28;20051;-51
2022/09/20 07:45:33;;;;;;;4.00;2.20;;;15.90;99.90;;;;;;5074979;28;20029;-50
2022/09/20 07:48:04;;;;;;;3.22;2.08;;;16.00;99.90;;;;;;5075378;28;20045;-51
2022/09/20 07:50:31;;;;;;;2.83;2.30;;;;;;;;;;5075651;28;20123;-51
2022/09/20 07:52:56;;;;;;;4.05;2.55;;;16.70;99.90;;;;;;5074932;28;20036;-53
2022/09/20 07:55:23;;;;;;;4.22;1.83;;;16.50;99.90;;;;;;5057385;28;20128;-52
2022/09/20 07:57:50;;;;;;;2.45;1.80;;;;;;;;;;5076053;28;20098;-51
2022/09/20 08:00:16;;;;;;;3.67;1.65;;;17.10;99.90;;;;;;5075733;28;20045;-52
2022/09/20 08:02:43;;;;;;;2.47;1.55;;;17.40;99.90;;;;;;5076068;28;20033;-50
2022/09/20 08:05:10;;;;;;;2.83;1.95;;;;;;;;;;5075548;28;20025;-51
2022/09/20 08:07:35;;;;;;;4.47;1.83;;;18.50;99.90;;;;;;5040338;28;20151;-51
2022/09/20 08:10:02;;;;;;;5.18;1.80;;;18.60;99.90;;;;;;5075492;28;20492;-53
2022/09/20 08:12:28;;;;;;;2.30;1.77;;;18.90;99.90;;;;;;5075385;28;20573;-53
2022/09/20 08:14:54;;;;;;;2.45;1.92;;;18.90;99.90;;;;;;5075373;28;20064;-51
2022/09/20 08:17:20;;;;;;;1.92;1.63;;;18.50;99.90;;;;;;5074454;28;20111;-50
2022/09/20 08:19:46;;;;;;;3.22;1.67;;;18.60;99.90;;;;;;5071894;28;20036;-53
2022/09/20 08:22:12;;;;;;;2.28;1.60;;;18.60;99.90;;;;;;5073912;28;20040;-50
2022/09/20 08:24:38;;;;;;;2.40;1.63;;;18.90;99.90;;;;;;5074994;28;20028;-51
2022/09/20 08:27:04;;;;;;;3.22;2.10;;;19.10;99.90;;;;;;5075567;28;20025;-50
2022/09/20 08:29:30;;;;;;;3.08;1.80;;;19.20;99.90;;;;;;5074717;28;20025;-51
2022/09/20 08:31:59;;;;;;;2.90;1.80;;;19.10;99.90;;;;;;5056555;28;20388;-51
2022/09/20 08:34:24;;;;;;;4.70;2.05;;;19.60;99.90;;;;;;5074284;28;20523;-52
2022/09/20 08:36:50;;;;;;;4.88;2.33;;;20.00;99.90;;;;;;5061052;28;20132;-50
2022/09/20 08:39:17;;;;;;;2.10;1.65;;;20.50;99.90;;;;;;5072654;28;20113;-52
2022/09/20 08:41:55;;;;;;;3.65;1.50;;;20.80;99.90;;;;;;5072242;28;20086;-50
2022/09/20 08:44:34;;;;;;;6.03;1.80;;;21.10;99.90;;;;;;5073465;28;20086;-50
2022/09/20 08:47:34;;;;;;;2.75;1.80;;;21.10;99.90;;;;;;5073315;28;20021;-49
2022/09/20 08:50:02;;;;;;;2.45;1.40;;;21.40;99.90;;;;;;5072053;28;20053;-49
2022/09/20 08:52:34;;;;;;;3.17;1.35;;;21.60;99.90;;;;;;5074013;28;20464;-48
2022/09/20 08:55:00;;;;;;;2.25;1.30;;;21.60;99.90;;;;;;5072050;28;20068;-49
2022/09/20 08:57:32;;;;;;;2.47;1.38;;;21.60;99.90;;;;;;5055497;28;20039;-51
2022/09/20 09:00:02;;;;;;;;;;;21.00;99.90;;;;;;5053680;28;20442;-48
2022/09/20 09:02:31;;;;;;;2.97;1.50;;;21.70;99.90;;;;;;5073840;28;19908;-51
2022/09/20 09:04:57;;;;;;;1.40;1.30;;;22.00;99.90;;;;;;5074328;28;20098;-46
2022/09/20 09:07:25;;;;;;;1.83;1.20;;;22.10;99.90;;;;;;5073531;28;20036;-48
2022/09/20 09:09:54;;;;;;;4.10;1.95;;;21.40;99.90;;;;;;5065393;28;20033;-48
2022/09/20 09:12:24;;;;;;;1.20;1.10;;;21.80;99.90;;;;;;5074440;28;20052;-50
2022/09/20 09:14:56;;;;;;;2.90;1.50;;;21.40;99.90;;;;;;5071655;28;20100;-48
2022/09/20 09:17:24;;;;;;;2.53;1.10;;;21.00;99.90;;;;;;5065230;28;20024;-47
2022/09/20 09:19:57;;;;;;;3.78;1.15;;;21.30;99.90;;;;;;5049126;28;20051;-52
2022/09/20 09:22:23;;;;;;;2.42;1.45;;;21.90;99.90;;;;;;5070443;28;20024;-51
2022/09/20 09:25:07;;;;;;;3.50;1.50;;;21.40;99.80;;;;;;5069154;28;20055;-49
2022/09/20 09:27:34;;;;;;;2.17;1.25;;;;;;;;;;5049919;28;20456;-55
2022/09/20 09:30:00;;;;;;;2.20;1.20;;;22.20;98.20;;;;;;5071728;28;20056;-50
2022/09/20 09:32:31;;;;;;;2.35;1.20;;;21.80;99.90;;;;;;5072832;28;20027;-50
2022/09/20 09:35:29;;;;;;;2.25;1.30;;;22.50;98.60;;;;;;5069853;28;20037;-56
2022/09/20 09:37:59;;;;;;;3.22;1.13;;;22.80;99.00;;;;;;5072009;28;20059;-52
2022/09/20 09:40:26;;;;;;;2.83;1.80;;;;;;;;;;5072229;28;20029;-50
2022/09/20 09:42:58;;;;;;;3.78;1.80;;;22.30;99.30;;;;;;5071710;28;20032;-51
2022/09/20 09:45:37;;;;;;;1.60;1.23;;;23.20;99.90;;;;;;5070164;28;20029;-49
2022/09/20 09:48:16;;;;;;;4.15;1.70;;;22.90;99.30;;;;;;5072313;28;20052;-55
2022/09/20 09:50:43;;;;;;;2.63;1.42;;;23.70;99.90;;;;;;5072789;28;20070;-51
2022/09/20 09:53:23;;;;;;;1.83;1.38;;;23.20;99.90;;;;;;5054015;28;20064;-51
2022/09/20 09:56:16;;;;;;;2.22;1.38;;;23.30;99.90;;;;;;5068800;28;20403;-48
2022/09/20 09:58:47;;;;;;;3.15;1.60;;;;;;;;;;5069584;28;20028;-46
2022/09/20 10:01:24;;;;;;;2.70;1.50;;;;;;;;;;5071823;28;20021;-48
2022/09/20 10:04:16;;;;;;;2.35;1.60;;;24.00;96.20;;;;;;5071503;28;20036;-49
2022/09/20 10:07:02;;;;;;;1.65;1.27;;;;;;;;;;5051155;28;20060;-48
2022/09/20 10:09:46;;;;;;;2.97;2.00;;;23.60;98.30;;;;;;4972517;28;20130;-48
2022/09/20 10:12:19;;;;;;;2.38;1.90;;;23.90;97.30;;;;;;4972667;28;20053;-48
2022/09/20 10:14:56;;;;;;;4.05;1.98;;;23.90;97.30;;;;;;4988754;28;20038;-48
2022/09/20 10:17:22;;;;;;;1.88;1.20;;;;;;;;;;4987352;28;20148;-46
2022/09/20 10:20:09;;;;;;;1.58;1.15;;;24.00;93.80;;;;;;4983830;28;20069;-49
2022/09/20 10:22:49;;;;;;;3.08;1.42;;;22.80;95.30;;;;;;4973418;28;20545;-49
2022/09/20 10:25:48;;;;;;;1.98;1.52;;;21.80;94.60;;;;;;4978427;28;20030;-49
2022/09/20 10:28:32;;;;;;;1.70;1.45;;;22.20;95.70;;;;;;4967494;28;20550;-48
2022/09/20 10:31:10;;;;;;;3.35;1.88;;;22.80;94.40;;;;;;4939372;28;20396;-46
2022/09/20 10:34:06;;;;;;;3.08;1.23;;;22.80;94.70;;;;;;4969549;28;20497;-46
2022/09/20 10:36:44;;;;;;;3.08;1.23;;;23.10;93.40;;;;;;4984122;28;20046;-47
2022/09/20 10:39:31;;;;;;;2.85;1.30;;;22.40;94.40;;;;;;4970770;28;20083;-48
2022/09/20 10:45:14;;;;;;;2.47;1.15;;;22.00;95.70;;;;;;4968774;28;20062;-47
2022/09/20 10:47:46;;;;;;;1.83;1.30;;;22.10;94.00;;;;;;5041970;28;20040;-45
2022/09/20 10:50:15;;;;;;;1.08;0.65;;;;;;;;;;5045961;28;20049;-47
2022/09/20 10:53:16;;;;;;;2.40;1.20;;;23.10;99.40;;;;;;5048644;28;20528;-48
2022/09/20 10:55:53;;;;;;;3.45;1.52;;;;;;;;;;4991234;28;20022;-49
2022/09/20 10:58:58;;;;;;;2.17;1.40;;;23.70;99.90;;;;;;4987824;28;20818;-48
2022/09/20 11:01:38;;;;;;;2.35;1.10;;;23.40;99.90;;;;;;4991108;28;20569;-48
2022/09/20 11:04:25;;;;;;;3.47;1.30;;;23.40;99.90;;;;;;4989850;28;20042;-45
2022/09/20 11:07:09;;;;;;;2.13;1.05;;;23.10;99.10;;;;;;4987666;28;20034;-49
2022/09/20 11:09:39;;;;;;;1.27;0.80;;;;;;;;;;4989813;28;20129;-48
2022/09/20 11:12:25;;;;;;;1.90;1.10;;;21.50;99.90;;;;;;4989076;28;20449;-51
2022/09/20 11:14:56;;;;;;;2.17;1.13;;;;;;;;;;4990126;28;20034;-51
2022/09/20 11:18:04;;;;;;;2.00;1.17;;;21.10;94.50;;;;;;5003471;28;20928;-51
2022/09/20 11:20:46;;;;;;;1.33;1.05;;;22.00;99.90;;;;;;4908802;29;20060;-49
2022/09/20 11:23:28;;;;;;;1.30;0.93;;;22.10;98.70;;;;;;4932815;29;20071;-49
2022/09/20 11:26:00;;;;;;;1.85;0.80;;;22.10;97.40;;;;;;4931477;29;20166;-49
2022/09/20 11:28:32;;;;;;;1.00;0.70;;;;;;;;;;4935256;29;20039;-51
2022/09/20 11:31:02;;;;;;;2.60;0.98;;;;;;;;;;5006709;28;20046;-51
2022/09/20 11:33:31;;;;;;;2.03;1.10;;;;;;;;;;5002860;28;20097;-49
2022/09/20 11:36:02;;;;;;;3.78;1.30;;;;;;;;;;5010746;28;20049;-50
2022/09/20 11:38:40;;;;;;;1.33;1.00;;;21.90;98.90;;;;;;4971967;28;20088;-52
2022/09/20 11:41:18;;;;;;;1.52;1.00;;;21.90;97.50;;;;;;5005259;28;20044;-51
2022/09/20 11:43:46;;;;;;;1.55;1.10;;;21.70;98.10;;;;;;5014214;28;20584;-49
2022/09/20 11:46:37;;;;;;;2.20;0.90;;;21.70;97.80;;;;;;5013254;28;20046;-49
2022/09/20 11:49:09;;;;;;;1.23;0.82;;;;;;;;;;5006965;28;20038;-51
2022/09/20 11:52:06;;;;;;;1.98;1.15;;;20.70;99.80;;;;;;4978316;28;20042;-50
2022/09/20 11:54:32;;;;;;;1.65;1.17;;;20.80;98.80;;;;;;4996206;28;20061;-49
2022/09/20 11:56:59;;;;;;;1.55;0.85;;;;;;;;;;5045595;28;20171;-49
2022/09/20 11:59:28;;;;;;;1.85;1.20;;;;;;;;;;5049890;28;20488;-47
2022/09/20 12:01:58;;;;;;;4.55;1.48;;;20.00;99.90;;;;;;5052444;28;20452;-49
2022/09/20 12:04:27;;;;;;;3.47;1.00;;;;;;;;;;5050266;28;20041;-47
2022/09/20 12:07:18;;;;;;;3.30;1.25;;;20.40;99.90;;;;;;5049249;28;20032;-46
2022/09/20 12:09:50;;;;;;;1.23;0.88;;;20.20;99.90;;;;;;4989529;28;20106;-44
2022/09/20 12:12:32;;;;;;;1.73;1.10;;;;;;;;;;4988825;28;20044;-47
2022/09/20 12:15:00;;;;;;;2.93;1.50;;;21.80;99.90;;;;;;4992433;28;20130;-52
2022/09/20 12:17:45;;;;;;;1.48;1.00;;;;;;;;;;4990412;28;20287;-50
2022/09/20 12:20:29;;;;;;;2.60;0.95;;;;;;;;;;4990016;28;20061;-49
2022/09/20 12:23:15;;;;;;;3.25;1.08;;;;;;;;;;4990444;28;20084;-48
2022/09/20 12:25:59;;;;;;;3.22;1.20;;;21.10;99.90;;;;;;4990002;28;20469;-51
2022/09/20 12:28:50;;;;;;;1.50;1.05;;;21.20;99.90;;;;;;4993609;28;20053;-48
2022/09/20 12:31:19;;;;;;;1.13;0.95;;;;;;;;;;4932724;29;20040;-51
2022/09/20 12:33:56;;;;;;;2.95;1.30;;;;;;;;;;4932479;29;20048;-52
2022/09/20 12:36:22;;;;;;;2.10;1.05;;;22.60;95.60;;;;;;4916828;29;20046;-49
2022/09/20 12:39:09;;;;;;;1.52;0.80;;;;;;;;;;4916690;29;20104;-51
2022/09/20 12:41:56;;;;;;;1.13;0.80;;;22.80;92.80;;;;;;4916690;29;20055;-51
2022/09/20 12:44:28;;;;;;;2.15;0.88;;;;;;;;;;4917242;29;20486;-48
2022/09/20 12:47:00;;;;;;;;;;;23.20;90.50;;;;;;4949807;28;20514;-51
2022/09/20 12:55:09;;;;;;;1.50;0.80;;;24.30;90.40;;;;;;4974391;28;20130;-46
2022/09/20 12:57:35;;;;;;;1.77;0.70;;;23.90;91.10;;;;;;4974039;28;20078;-51
2022/09/20 13:00:03;;;;;;;1.55;0.77;;;24.20;92.50;;;;;;4972985;28;20450;-52
2022/09/20 13:03:13;;;;;;;1.20;0.70;;;24.10;91.60;;;;;;4965424;28;20100;-51
2022/09/20 13:05:51;;;;;;;1.02;0.57;;;24.10;90.50;;;;;;4897440;29;20056;-53
2022/09/20 13:08:26;;;;;;;0.77;0.50;;;24.00;93.20;;;;;;4887706;29;20044;-49
2022/09/20 13:11:13;;;;;;;1.10;0.70;;;24.00;92.70;;;;;;4935253;29;20039;-47
2022/09/20 13:13:42;;;;;;;1.00;0.70;;;24.20;92.30;;;;;;4934974;29;20051;-49
2022/09/20 13:16:15;;;;;;;1.52;0.85;;;;;;;;;;4935201;29;20491;-51
2022/09/20 13:18:42;;;;;;;2.65;0.70;;;24.20;87.30;;;;;;4934957;29;20546;-50
2022/09/20 13:21:08;;;;;;;2.83;0.85;;;24.10;87.40;;;;;;4934978;29;20058;-50
2022/09/20 13:23:44;;;;;;;1.67;0.82;;;24.60;89.10;;;;;;4918825;29;20043;-50
2022/09/20 13:26:12;;;;;;;0.68;0.63;;;24.20;86.90;;;;;;4934735;29;20059;-51
2022/09/20 13:28:46;;;;;;;0.63;0.63;;;24.00;86.90;;;;;;4934850;29;20130;-51
2022/09/20 13:31:22;;;;;;;0.88;0.70;;;23.90;86.20;;;;;;4934722;29;20087;-51
2022/09/20 13:33:48;;;;;;;2.17;0.93;;;24.00;88.40;;;;;;4934614;29;20040;-48
2022/09/20 13:36:36;;;;;;;2.13;0.75;;;24.00;86.90;;;;;;4934597;29;20095;-50
2022/09/20 13:39:05;;;;;;;1.67;0.70;;;23.90;87.80;;;;;;4940211;28;20238;-52
2022/09/20 13:41:32;;;;;;;1.83;1.15;;;23.70;87.90;;;;;;5030072;28;20045;-47
2022/09/20 13:43:58;;;;;;;0.70;0.70;;;;;;;;;;5054046;28;20036;-50
2022/09/20 13:46:41;;;;;;;0.88;0.63;;;22.80;87.90;;;;;;5051096;28;20091;-51
2022/09/20 13:49:10;;;;;;;0.47;0.45;;;;;;;;;;5053700;28;20087;-51
2022/09/20 13:51:36;;;;;;;4.28;1.02;;;22.70;95.90;;;;;;5050371;28;20075;-48
2022/09/20 13:54:17;;;;;;;2.85;0.75;;;;;;;;;;5036030;28;20466;-50
2022/09/20 13:56:43;;;;;;;1.10;0.82;;;23.60;99.90;;;;;;5046477;28;20053;-48
2022/09/20 13:59:16;;;;;;;1.23;0.90;;;23.20;94.50;;;;;;5053410;28;20068;-52
2022/09/20 14:01:54;;;;;;;0.52;0.52;;;22.50;90.60;;;;;;5037460;28;20370;-52
2022/09/20 14:04:23;;;;;;;1.52;0.90;;;22.00;93.80;;;;;;5036846;28;20059;-52
2022/09/20 14:06:52;;;;;;;2.25;0.90;;;21.50;92.40;;;;;;5052450;28;20379;-50
2022/09/20 14:09:24;;;;;;;2.60;1.35;;;21.00;93.90;;;;;;5053485;28;20044;-52
2022/09/20 14:11:51;;;;;;;3.33;1.30;;;;;;;;;;5053033;28;20082;-50
2022/09/20 14:14:19;;;;;;;4.10;2.53;;;20.50;97.10;;;;;;5032628;28;20067;-49
2022/09/20 14:16:45;;;;;;;1.35;1.20;;;20.30;97.20;;;;;;5051117;28;20415;-50
2022/09/20 14:19:14;;;;;;;2.15;1.20;;;;;;;;;;5051940;28;20029;-49
2022/09/20 14:21:41;;;;;;;2.67;1.10;;;19.80;99.90;;;;;;5048065;28;20025;-49
2022/09/20 14:24:26;;;;;;;2.70;1.10;;;19.60;95.30;;;;;;5049587;28;20043;-53
2022/09/20 14:27:24;;;;;;;2.25;1.50;;;19.60;99.90;;;;;;5044278;28;20025;-48
2022/09/20 14:29:51;;;;;;;3.15;1.77;;;19.20;99.90;;;;;;4970234;28;20146;-51